Time;durP1;ratioP1;P1;durP2;ratioP2;P2;SDS_P1;SDS_P2;PMS_P1;PMS_P2;Temp;Humidity;BMP_temperature;BMP_pressure;BME280_temperature;BME280_humidity;BME280_pressure;Samples;Min_cycle;Max_cycle;Signal;HPM_P1;HPM_P2
2022/03/14 00:01:37;;;;;;;8.97;8.07;;;6.50;63.10;;;;;;6006862;23;20418;-70
2022/03/14 00:04:25;;;;;;;11.07;8.30;;;6.50;64.20;;;;;;6000340;23;20449;-70
2022/03/14 00:07:13;;;;;;;9.37;8.00;;;6.50;64.40;;;;;;6007263;23;20413;-70
2022/03/14 00:10:03;;;;;;;10.70;8.70;;;6.40;64.80;;;;;;6007160;23;20424;-70
2022/03/14 00:12:58;;;;;;;9.90;7.73;;;6.40;62.40;;;;;;6005885;23;20500;-69
2022/03/14 00:15:46;;;;;;;8.83;7.93;;;6.40;64.10;;;;;;6004736;23;21292;-70
2022/03/14 00:18:35;;;;;;;10.07;9.00;;;6.40;63.50;;;;;;6005748;23;20445;-70
2022/03/14 00:21:25;;;;;;;9.40;7.63;;;6.40;65.40;;;;;;6005910;23;20548;-70
2022/03/14 00:24:13;;;;;;;9.83;7.77;;;6.30;64.40;;;;;;5993860;23;20586;-69
2022/03/14 00:27:03;;;;;;;9.63;8.67;;;6.30;64.30;;;;;;6006171;23;20421;-70
2022/03/14 00:29:52;;;;;;;8.17;7.20;;;6.30;66.00;;;;;;6004877;23;20521;-70
2022/03/14 00:32:41;;;;;;;9.47;8.47;;;6.30;63.40;;;;;;6015918;23;20445;-69
2022/03/14 00:35:29;;;;;;;9.70;7.70;;;6.30;63.50;;;;;;6004831;23;20892;-70
2022/03/14 00:38:17;;;;;;;11.00;8.03;;;6.30;62.80;;;;;;6006352;23;20473;-69
2022/03/14 00:41:06;;;;;;;10.53;7.30;;;6.30;64.00;;;;;;6001276;23;20448;-69
2022/03/14 00:43:56;;;;;;;8.43;7.63;;;6.30;63.20;;;;;;6004213;23;20704;-69
2022/03/14 00:46:44;;;;;;;12.03;8.20;;;6.20;63.70;;;;;;6007066;23;20475;-69
2022/03/14 00:49:33;;;;;;;8.90;7.60;;;6.20;63.20;;;;;;6004711;23;20436;-69
2022/03/14 00:52:26;;;;;;;8.27;7.40;;;6.20;63.50;;;;;;6013345;23;20512;-69
2022/03/14 00:55:14;;;;;;;9.60;8.60;;;6.20;64.10;;;;;;6004077;23;20473;-70
2022/03/14 00:58:02;;;;;;;8.10;7.30;;;6.20;64.20;;;;;;6022421;23;20468;-70
2022/03/14 01:00:52;;;;;;;11.00;8.60;;;6.10;64.90;;;;;;6013378;23;20497;-70
2022/03/14 01:03:40;;;;;;;8.90;8.00;;;6.20;64.90;;;;;;6019417;23;20442;-70
2022/03/14 01:06:29;;;;;;;10.20;7.87;;;6.10;63.70;;;;;;6020986;23;20421;-70
2022/03/14 01:09:17;;;;;;;8.97;7.70;;;6.10;63.80;;;;;;6020964;23;20479;-69
2022/03/14 01:12:07;;;;;;;10.17;8.43;;;6.10;64.90;;;;;;6018936;23;20425;-70
2022/03/14 01:14:56;;;;;;;9.97;8.33;;;6.10;63.80;;;;;;6003944;23;20532;-70
2022/03/14 01:17:45;;;;;;;8.90;7.67;;;6.10;64.40;;;;;;6003702;23;20893;-69
2022/03/14 01:20:34;;;;;;;10.10;8.07;;;6.00;65.10;;;;;;5997757;23;20537;-69
2022/03/14 01:23:22;;;;;;;8.17;7.20;;;6.00;65.80;;;;;;5996667;23;20945;-70
2022/03/14 01:26:10;;;;;;;9.53;8.40;;;6.00;65.30;;;;;;6002330;23;20473;-70
2022/03/14 01:28:58;;;;;;;9.70;8.70;;;6.00;66.70;;;;;;6003910;23;20497;-69
2022/03/14 01:31:46;;;;;;;10.83;8.67;;;5.90;66.50;;;;;;6004221;23;20429;-69
2022/03/14 01:34:36;;;;;;;8.93;7.43;;;5.90;65.60;;;;;;6001110;23;20446;-70
2022/03/14 01:37:24;;;;;;;10.00;7.90;;;5.90;67.40;;;;;;6003236;23;20536;-70
2022/03/14 01:40:14;;;;;;;9.10;7.60;;;5.90;65.20;;;;;;5996770;23;21384;-70
2022/03/14 01:43:03;;;;;;;9.53;8.40;;;5.90;65.40;;;;;;6000709;23;21005;-70
2022/03/14 01:45:51;;;;;;;8.60;7.70;;;5.90;65.60;;;;;;6003611;23;20589;-69
2022/03/14 01:48:40;;;;;;;10.13;8.00;;;5.80;66.10;;;;;;6004874;23;20474;-70
2022/03/14 01:51:29;;;;;;;9.17;8.10;;;5.80;65.20;;;;;;6002610;23;20869;-69
2022/03/14 01:54:18;;;;;;;8.73;7.40;;;5.90;65.30;;;;;;6003717;23;20453;-70
2022/03/14 01:57:06;;;;;;;9.90;7.80;;;5.80;66.20;;;;;;6006013;23;20445;-70
2022/03/14 01:59:55;;;;;;;8.93;7.93;;;5.80;66.70;;;;;;6013475;23;20437;-71
2022/03/14 02:02:44;;;;;;;9.77;8.00;;;5.70;67.00;;;;;;6022411;23;20665;-69
2022/03/14 02:05:37;;;;;;;9.90;8.90;;;5.70;65.50;;;;;;6014250;23;20480;-70
2022/03/14 02:08:26;;;;;;;10.40;7.87;;;5.70;66.70;;;;;;6003354;23;20500;-69
2022/03/14 02:11:15;;;;;;;8.70;7.50;;;5.70;65.60;;;;;;6003507;23;20496;-70
2022/03/14 02:14:03;;;;;;;9.10;8.20;;;5.60;65.50;;;;;;6000716;23;20991;-69
2022/03/14 02:16:52;;;;;;;10.80;8.00;;;5.60;65.30;;;;;;6003412;23;20445;-70
2022/03/14 02:19:41;;;;;;;8.80;7.90;;;5.60;67.30;;;;;;6003091;23;20587;-69
2022/03/14 02:22:30;;;;;;;9.60;8.23;;;5.60;67.40;;;;;;5995814;23;20441;-69
2022/03/14 02:25:19;;;;;;;9.00;8.20;;;5.60;66.30;;;;;;6003197;23;20932;-69
2022/03/14 02:28:07;;;;;;;10.77;8.63;;;5.50;67.30;;;;;;6002039;23;20497;-70
2022/03/14 02:30:55;;;;;;;10.43;8.60;;;5.50;66.80;;;;;;6003325;23;20481;-70
2022/03/14 02:33:44;;;;;;;10.27;8.77;;;5.50;66.20;;;;;;6003380;23;20441;-69
2022/03/14 02:36:32;;;;;;;8.87;7.97;;;5.50;66.10;;;;;;6000442;23;20501;-69
2022/03/14 02:39:22;;;;;;;9.37;8.47;;;5.50;66.40;;;;;;6000224;23;20464;-69
2022/03/14 02:42:14;;;;;;;10.07;8.17;;;5.50;66.30;;;;;;6001520;23;20421;-69
2022/03/14 02:45:04;;;;;;;10.53;8.23;;;5.50;67.40;;;;;;6001485;23;20871;-69
2022/03/14 02:47:52;;;;;;;10.10;8.70;;;5.40;68.00;;;;;;6003904;23;20484;-69
2022/03/14 02:50:41;;;;;;;10.60;8.30;;;5.40;68.00;;;;;;6002962;23;20418;-69
2022/03/14 02:53:29;;;;;;;9.37;8.37;;;5.40;67.00;;;;;;6002770;23;20608;-69
2022/03/14 02:56:20;;;;;;;11.17;9.23;;;5.40;68.70;;;;;;6000856;23;20438;-69
2022/03/14 02:59:09;;;;;;;9.70;8.50;;;5.40;68.00;;;;;;6002666;23;20921;-69
2022/03/14 03:01:57;;;;;;;10.67;8.23;;;5.30;68.30;;;;;;5999477;23;20445;-69
2022/03/14 03:04:46;;;;;;;10.70;8.93;;;5.30;69.10;;;;;;5999636;23;21244;-69
2022/03/14 03:07:37;;;;;;;10.30;8.60;;;5.30;68.90;;;;;;6002843;23;20774;-69
2022/03/14 03:10:25;;;;;;;9.87;8.33;;;5.30;68.00;;;;;;6002586;23;20433;-69
2022/03/14 03:13:15;;;;;;;8.83;8.03;;;5.20;69.10;;;;;;6010349;23;20457;-69
2022/03/14 03:16:06;;;;;;;11.00;8.77;;;5.20;69.70;;;;;;6004220;23;20437;-69
2022/03/14 03:18:55;;;;;;;11.00;8.87;;;5.20;70.00;;;;;;6002682;23;20448;-69
2022/03/14 03:21:43;;;;;;;10.37;8.60;;;5.20;68.00;;;;;;5997089;23;20501;-69
2022/03/14 03:24:31;;;;;;;10.60;8.70;;;5.20;68.90;;;;;;6003910;23;20555;-69
2022/03/14 03:27:20;;;;;;;9.57;8.67;;;5.20;70.10;;;;;;6002727;23;20962;-69
2022/03/14 03:30:10;;;;;;;11.50;9.23;;;5.20;70.10;;;;;;6002676;23;20470;-70
2022/03/14 03:32:59;;;;;;;12.50;8.67;;;5.10;69.20;;;;;;6001425;23;20430;-69
2022/03/14 03:35:47;;;;;;;10.50;9.00;;;5.20;69.70;;;;;;6001971;23;20453;-70
2022/03/14 03:38:36;;;;;;;9.63;8.73;;;5.10;70.00;;;;;;6003187;23;20559;-69
2022/03/14 03:41:26;;;;;;;9.37;8.47;;;5.10;69.80;;;;;;5995995;23;20533;-69
2022/03/14 03:44:18;;;;;;;12.10;9.43;;;5.10;69.60;;;;;;6002831;23;20454;-70
2022/03/14 03:47:08;;;;;;;10.20;9.10;;;5.10;70.60;;;;;;6019180;23;20441;-70
2022/03/14 03:49:57;;;;;;;10.23;9.10;;;5.00;69.10;;;;;;6005210;23;20446;-69
2022/03/14 03:52:45;;;;;;;10.33;8.60;;;5.00;71.10;;;;;;6006031;23;20449;-69
2022/03/14 03:55:34;;;;;;;12.90;9.00;;;5.00;70.10;;;;;;6004161;23;21066;-69
2022/03/14 03:58:22;;;;;;;9.87;8.80;;;5.00;70.20;;;;;;6004546;23;20502;-69
2022/03/14 04:01:10;;;;;;;11.57;9.47;;;5.00;71.90;;;;;;5997629;23;20501;-70
2022/03/14 04:04:01;;;;;;;10.80;8.80;;;4.90;71.20;;;;;;5984924;23;20449;-69
2022/03/14 04:06:57;;;;;;;11.80;10.00;;;4.90;70.20;;;;;;6014006;23;20418;-69
2022/03/14 04:09:46;;;;;;;10.60;9.23;;;4.90;69.90;;;;;;6006248;23;20948;-69
2022/03/14 04:12:34;;;;;;;10.47;8.57;;;4.80;70.70;;;;;;5995490;23;20525;-69
2022/03/14 04:15:23;;;;;;;11.43;9.27;;;4.80;71.60;;;;;;6005875;23;20481;-69
2022/03/14 04:18:11;;;;;;;13.93;9.50;;;4.80;72.90;;;;;;6006021;23;20441;-69
2022/03/14 04:21:01;;;;;;;11.43;9.20;;;4.80;72.60;;;;;;6005485;23;20505;-69
2022/03/14 04:23:49;;;;;;;12.37;10.03;;;4.80;72.60;;;;;;6004444;23;20528;-69
2022/03/14 04:26:38;;;;;;;11.00;9.27;;;4.70;72.50;;;;;;6006492;23;20810;-69
2022/03/14 04:29:27;;;;;;;12.03;10.20;;;4.70;72.90;;;;;;6008544;23;20418;-69
2022/03/14 04:32:16;;;;;;;10.13;9.03;;;4.70;72.40;;;;;;5998325;23;20545;-69
2022/03/14 04:35:05;;;;;;;10.70;9.60;;;4.60;74.20;;;;;;6009688;23;21290;-70
2022/03/14 04:37:54;;;;;;;9.37;8.23;;;4.60;72.80;;;;;;6007060;23;20550;-69
2022/03/14 04:40:43;;;;;;;10.37;9.27;;;4.60;73.60;;;;;;6001741;23;20410;-69
2022/03/14 04:43:31;;;;;;;12.27;9.80;;;4.60;74.00;;;;;;6017186;23;20473;-70
2022/03/14 04:46:19;;;;;;;11.17;9.47;;;4.50;74.80;;;;;;6004586;23;20437;-69
2022/03/14 04:49:08;;;;;;;13.60;9.77;;;4.50;75.80;;;;;;6008125;23;20414;-70
2022/03/14 04:51:57;;;;;;;10.80;9.70;;;4.50;75.70;;;;;;6009439;23;20421;-70
2022/03/14 04:54:46;;;;;;;10.67;9.57;;;4.40;76.40;;;;;;6005994;23;20463;-69
2022/03/14 04:57:34;;;;;;;11.40;10.00;;;4.30;77.50;;;;;;6007790;23;20512;-70
2022/03/14 05:00:23;;;;;;;12.37;9.60;;;4.30;78.90;;;;;;6006076;23;20481;-69
2022/03/14 05:03:11;;;;;;;13.00;10.27;;;4.30;78.50;;;;;;6000158;23;21100;-69
2022/03/14 05:06:00;;;;;;;11.33;9.73;;;4.30;77.90;;;;;;6004150;23;20447;-69
2022/03/14 05:08:49;;;;;;;10.97;9.83;;;4.30;78.80;;;;;;6005845;23;20896;-69
2022/03/14 05:11:38;;;;;;;12.33;10.00;;;4.20;81.00;;;;;;6006649;23;20426;-69
2022/03/14 05:14:27;;;;;;;11.60;10.03;;;4.20;79.50;;;;;;6005331;23;20505;-69
2022/03/14 05:17:20;;;;;;;11.50;10.10;;;4.20;81.10;;;;;;6006961;23;20436;-69
2022/03/14 05:20:09;;;;;;;12.70;10.93;;;4.20;81.10;;;;;;6006343;23;20795;-69
2022/03/14 05:22:57;;;;;;;12.97;10.30;;;4.20;81.90;;;;;;5999097;23;20570;-69
2022/03/14 05:25:46;;;;;;;12.60;10.23;;;4.10;79.20;;;;;;6004313;23;20481;-69
2022/03/14 05:28:35;;;;;;;11.10;9.70;;;4.10;80.80;;;;;;6017388;23;20496;-69
2022/03/14 05:31:23;;;;;;;11.60;10.40;;;4.10;81.90;;;;;;6005924;23;20424;-69
2022/03/14 05:34:11;;;;;;;13.93;10.47;;;4.00;82.40;;;;;;6006387;23;20537;-69
2022/03/14 05:37:00;;;;;;;14.60;9.27;;;4.00;83.90;;;;;;6006395;23;20525;-70
2022/03/14 05:39:49;;;;;;;13.60;10.33;;;4.00;84.90;;;;;;6013928;23;21058;-69
2022/03/14 05:42:37;;;;;;;14.20;10.17;;;4.00;82.80;;;;;;6003748;23;20988;-69
2022/03/14 05:45:27;;;;;;;12.17;10.53;;;3.90;84.20;;;;;;6005338;23;20537;-69
2022/03/14 05:48:15;;;;;;;13.73;11.80;;;3.90;84.70;;;;;;6006786;23;21163;-69
2022/03/14 05:51:04;;;;;;;12.17;9.73;;;3.90;82.10;;;;;;6004797;23;20500;-69
2022/03/14 05:53:52;;;;;;;13.90;11.20;;;3.90;84.60;;;;;;6005341;23;20528;-70
2022/03/14 05:56:40;;;;;;;14.67;11.80;;;3.80;86.70;;;;;;6006889;23;20516;-70
2022/03/14 05:59:28;;;;;;;12.23;10.30;;;3.80;85.90;;;;;;6002369;23;20437;-69
2022/03/14 06:02:21;;;;;;;13.77;11.53;;;3.80;85.90;;;;;;6013122;23;20441;-69
2022/03/14 06:05:10;;;;;;;15.20;11.37;;;3.80;86.60;;;;;;6006250;23;20450;-69
2022/03/14 06:07:58;;;;;;;13.50;11.80;;;3.80;86.00;;;;;;6007055;23;20461;-69
2022/03/14 06:10:46;;;;;;;13.30;11.03;;;3.70;86.90;;;;;;6003889;23;20840;-69
2022/03/14 06:13:35;;;;;;;13.70;11.30;;;3.80;85.90;;;;;;6006456;23;20464;-69
2022/03/14 06:16:23;;;;;;;12.90;11.50;;;3.80;87.80;;;;;;6006341;23;20535;-69
2022/03/14 06:19:14;;;;;;;14.37;11.70;;;3.80;88.40;;;;;;5999669;23;20414;-69
2022/03/14 06:22:02;;;;;;;12.00;10.70;;;3.80;88.50;;;;;;6003606;23;20428;-69
2022/03/14 06:24:56;;;;;;;13.10;10.73;;;3.80;87.60;;;;;;6017983;23;20470;-69
2022/03/14 06:27:45;;;;;;;15.87;12.07;;;3.80;86.60;;;;;;6022555;23;20465;-69
2022/03/14 06:30:33;;;;;;;15.17;11.40;;;3.80;88.00;;;;;;6006562;23;20496;-69
2022/03/14 06:33:21;;;;;;;13.37;11.93;;;3.80;86.00;;;;;;6006784;23;20441;-69
2022/03/14 06:36:11;;;;;;;15.03;11.60;;;3.80;86.60;;;;;;6004179;23;20441;-69
2022/03/14 06:39:00;;;;;;;13.93;12.13;;;3.90;86.80;;;;;;5997697;23;20414;-69
2022/03/14 06:41:52;;;;;;;16.83;12.00;;;3.80;88.30;;;;;;6004200;23;20409;-70
2022/03/14 06:44:42;;;;;;;15.17;12.50;;;3.90;86.10;;;;;;6011483;23;20446;-69
2022/03/14 06:47:32;;;;;;;14.13;12.03;;;3.90;88.10;;;;;;6005045;23;20445;-69
2022/03/14 06:50:21;;;;;;;14.77;12.23;;;4.00;86.80;;;;;;6004908;23;20410;-70
2022/03/14 06:53:11;;;;;;;13.73;11.03;;;4.10;85.70;;;;;;6006638;23;20466;-69
2022/03/14 06:55:59;;;;;;;15.37;10.97;;;4.10;86.60;;;;;;6004522;23;20524;-70
2022/03/14 06:58:47;;;;;;;17.70;12.17;;;4.10;85.30;;;;;;5998655;23;20504;-69
2022/03/14 07:01:35;;;;;;;17.30;11.83;;;4.20;84.90;;;;;;6003086;23;20520;-69
2022/03/14 07:04:24;;;;;;;14.33;12.53;;;4.20;84.00;;;;;;5995400;23;20466;-69
2022/03/14 07:07:12;;;;;;;15.30;12.10;;;4.30;83.80;;;;;;5978577;24;20497;-69
2022/03/14 07:10:01;;;;;;;17.80;12.23;;;4.30;85.50;;;;;;5978053;24;20438;-69
2022/03/14 07:12:54;;;;;;;14.40;11.87;;;4.40;83.80;;;;;;5990662;23;20504;-69
2022/03/14 07:15:42;;;;;;;13.20;11.30;;;4.40;85.10;;;;;;5979412;23;20942;-69
2022/03/14 07:18:30;;;;;;;16.10;12.37;;;4.50;85.70;;;;;;5975335;23;20550;-69
2022/03/14 07:21:18;;;;;;;15.33;11.83;;;4.50;84.20;;;;;;5976737;23;20449;-70
2022/03/14 07:24:07;;;;;;;14.33;12.90;;;4.60;83.80;;;;;;5978198;24;20474;-69
2022/03/14 07:26:56;;;;;;;13.30;11.00;;;4.60;82.30;;;;;;5976935;24;20418;-71
2022/03/14 07:29:44;;;;;;;12.87;11.07;;;4.70;81.10;;;;;;5976797;24;20442;-69
2022/03/14 07:32:34;;;;;;;15.03;12.23;;;4.80;80.90;;;;;;5977121;24;20480;-69
2022/03/14 07:35:23;;;;;;;12.27;10.70;;;4.80;80.10;;;;;;5976976;24;20650;-69
2022/03/14 07:38:12;;;;;;;13.50;11.70;;;4.90;78.90;;;;;;5972081;23;20531;-70
2022/03/14 07:41:00;;;;;;;11.87;10.63;;;4.90;77.20;;;;;;5963145;24;20502;-69
2022/03/14 07:43:49;;;;;;;12.60;10.73;;;4.90;77.10;;;;;;5970016;23;20839;-70
2022/03/14 07:46:38;;;;;;;13.30;11.20;;;4.90;76.70;;;;;;6006424;23;20510;-69
2022/03/14 07:49:27;;;;;;;13.70;11.67;;;4.90;75.80;;;;;;6005196;23;20951;-69
2022/03/14 07:52:15;;;;;;;12.77;10.93;;;4.90;77.80;;;;;;6005036;23;20510;-69
2022/03/14 07:55:04;;;;;;;14.10;11.70;;;5.00;77.40;;;;;;6004860;23;20586;-70
2022/03/14 07:57:53;;;;;;;14.20;11.80;;;5.10;76.80;;;;;;6007126;23;20521;-69
2022/03/14 08:00:42;;;;;;;12.50;11.10;;;5.10;77.50;;;;;;6004288;23;20473;-69
2022/03/14 08:03:32;;;;;;;12.90;11.50;;;5.20;77.80;;;;;;6001817;23;20441;-71
2022/03/14 08:06:23;;;;;;;13.90;10.90;;;5.20;76.40;;;;;;5978652;24;20423;-69
2022/03/14 08:09:11;;;;;;;15.73;12.30;;;5.30;76.20;;;;;;5979744;24;20426;-69
2022/03/14 08:12:00;;;;;;;15.50;11.83;;;5.40;75.80;;;;;;5981678;23;20467;-69
2022/03/14 08:14:48;;;;;;;14.90;11.97;;;5.50;75.90;;;;;;5979558;23;20495;-69
2022/03/14 08:17:38;;;;;;;14.80;11.83;;;5.60;76.30;;;;;;5979414;24;20419;-69
2022/03/14 08:20:27;;;;;;;14.47;11.50;;;5.70;76.10;;;;;;5973897;24;20502;-70
2022/03/14 08:23:16;;;;;;;13.07;11.67;;;5.70;76.60;;;;;;5978844;24;20443;-70
2022/03/14 08:26:06;;;;;;;16.70;12.80;;;5.80;74.80;;;;;;6004963;23;20839;-69
2022/03/14 08:28:54;;;;;;;14.80;12.90;;;5.90;74.70;;;;;;6005859;23;20422;-69
2022/03/14 08:31:42;;;;;;;14.63;12.10;;;5.90;74.40;;;;;;6005938;23;20410;-69
2022/03/14 08:34:32;;;;;;;18.60;12.13;;;5.90;74.40;;;;;;6007911;23;20449;-70
2022/03/14 08:37:21;;;;;;;14.80;12.40;;;5.90;75.90;;;;;;6024059;23;20425;-70
2022/03/14 08:40:10;;;;;;;14.57;11.63;;;6.00;76.10;;;;;;6004690;23;20417;-69
2022/03/14 08:42:59;;;;;;;16.07;12.77;;;6.10;78.00;;;;;;6018169;23;20462;-69
2022/03/14 08:45:47;;;;;;;13.40;12.00;;;6.20;76.70;;;;;;6007756;23;20472;-70
2022/03/14 08:48:35;;;;;;;15.87;12.43;;;6.30;75.90;;;;;;6005492;23;20473;-69
2022/03/14 08:51:24;;;;;;;15.23;12.80;;;6.40;75.90;;;;;;6006570;23;20498;-70
2022/03/14 08:54:13;;;;;;;14.90;13.10;;;6.50;75.40;;;;;;6005151;23;20450;-70
2022/03/14 08:57:01;;;;;;;16.33;12.60;;;6.60;75.60;;;;;;6000318;23;20633;-70
2022/03/14 08:59:49;;;;;;;16.77;13.27;;;6.70;76.10;;;;;;6005274;23;20895;-70
2022/03/14 09:02:37;;;;;;;14.67;12.20;;;6.90;76.90;;;;;;6006932;23;21034;-69
2022/03/14 09:05:25;;;;;;;13.97;12.47;;;7.00;74.40;;;;;;6007485;23;20528;-70
2022/03/14 09:08:15;;;;;;;13.67;12.23;;;7.00;73.50;;;;;;6006618;23;20778;-69
2022/03/14 09:11:03;;;;;;;18.47;12.87;;;7.00;74.80;;;;;;6005992;23;20442;-69
2022/03/14 09:13:51;;;;;;;14.87;12.90;;;7.00;73.30;;;;;;6020990;23;20568;-70
2022/03/14 09:16:40;;;;;;;15.63;12.90;;;7.00;74.30;;;;;;6021138;23;20413;-70
2022/03/14 09:19:30;;;;;;;13.53;12.23;;;6.90;73.80;;;;;;6006399;23;20414;-69
2022/03/14 09:22:18;;;;;;;14.70;13.10;;;6.90;74.40;;;;;;6006994;23;20488;-69
2022/03/14 09:25:09;;;;;;;14.03;12.53;;;7.00;74.40;;;;;;6005541;23;20524;-70
2022/03/14 09:27:57;;;;;;;14.63;12.47;;;7.10;74.40;;;;;;6014830;23;20900;-70
2022/03/14 09:30:45;;;;;;;13.23;11.73;;;7.10;74.90;;;;;;6007983;23;20974;-70
2022/03/14 09:33:34;;;;;;;15.30;12.47;;;7.10;76.00;;;;;;6006622;23;20528;-69
2022/03/14 09:36:22;;;;;;;13.87;12.40;;;7.30;76.50;;;;;;6001769;23;20823;-70
2022/03/14 09:39:13;;;;;;;16.07;11.87;;;7.40;76.30;;;;;;6009364;23;20422;-70
2022/03/14 09:42:04;;;;;;;15.97;12.10;;;7.50;75.80;;;;;;6004337;23;20557;-69
2022/03/14 09:44:54;;;;;;;14.77;13.10;;;7.40;76.00;;;;;;6005066;23;21250;-69
2022/03/14 09:47:45;;;;;;;16.17;12.50;;;7.40;77.10;;;;;;6007468;23;20421;-69
2022/03/14 09:50:35;;;;;;;15.87;12.77;;;7.50;78.20;;;;;;6002992;23;20482;-69
2022/03/14 09:53:24;;;;;;;17.83;12.50;;;7.60;77.80;;;;;;6006988;23;21020;-69
2022/03/14 09:56:12;;;;;;;14.97;13.30;;;7.80;78.70;;;;;;6004271;23;20800;-69
2022/03/14 09:59:02;;;;;;;16.03;12.90;;;7.90;77.30;;;;;;6001358;23;20529;-69
2022/03/14 10:01:51;;;;;;;16.83;12.60;;;8.10;78.50;;;;;;6006686;23;20442;-69
2022/03/14 10:04:40;;;;;;;15.00;12.67;;;8.20;78.20;;;;;;6006087;23;20441;-69
2022/03/14 10:07:28;;;;;;;17.90;12.77;;;8.40;79.30;;;;;;6005027;23;20426;-69
2022/03/14 10:10:16;;;;;;;14.43;12.63;;;8.40;80.20;;;;;;6004533;23;20532;-69
2022/03/14 10:13:05;;;;;;;13.60;11.70;;;8.60;80.90;;;;;;6006276;23;20952;-69
2022/03/14 10:15:54;;;;;;;16.00;12.73;;;8.70;82.60;;;;;;6006282;23;20494;-69
2022/03/14 10:18:54;;;;;;;13.37;12.07;;;8.80;82.80;;;;;;6013579;23;20473;-69
2022/03/14 10:21:42;;;;;;;14.40;12.80;;;8.90;82.40;;;;;;6003034;23;20513;-69
2022/03/14 10:24:32;;;;;;;14.00;12.47;;;8.90;82.40;;;;;;6001622;23;20605;-69
2022/03/14 10:27:22;;;;;;;15.10;12.80;;;8.90;83.00;;;;;;6003386;23;21167;-69
2022/03/14 10:30:23;;;;;;;15.33;13.07;;;9.00;85.20;;;;;;6001970;23;21033;-69
2022/03/14 10:33:16;;;;;;;14.07;12.07;;;9.10;86.50;;;;;;6003130;23;20527;-69
2022/03/14 10:36:06;;;;;;;13.80;12.30;;;9.10;88.60;;;;;;6002308;23;20442;-69
2022/03/14 10:38:54;;;;;;;16.27;12.60;;;9.10;88.00;;;;;;5996730;23;20410;-69
2022/03/14 10:41:44;;;;;;;13.03;11.63;;;9.10;87.10;;;;;;5986375;23;20521;-69
2022/03/14 10:44:55;;;;;;;13.13;11.97;;;9.10;90.10;;;;;;6001690;23;20473;-69
2022/03/14 10:47:47;;;;;;;17.03;12.50;;;9.10;91.00;;;;;;6003554;23;20505;-70
2022/03/14 10:50:38;;;;;;;13.70;11.83;;;9.10;91.30;;;;;;6004708;23;20714;-70
2022/03/14 10:53:26;;;;;;;14.90;12.57;;;9.10;91.80;;;;;;6003261;23;20962;-69
2022/03/14 10:56:17;;;;;;;14.00;12.37;;;9.10;92.50;;;;;;6001391;23;20537;-69
2022/03/14 10:59:08;;;;;;;18.77;12.57;;;9.20;92.20;;;;;;6003116;23;20465;-69
2022/03/14 11:02:00;;;;;;;14.67;11.40;;;9.20;92.50;;;;;;5995260;23;20485;-68
2022/03/14 11:04:49;;;;;;;13.43;11.93;;;9.20;93.20;;;;;;6002808;23;20445;-69
2022/03/14 11:07:40;;;;;;;16.57;13.17;;;9.20;92.30;;;;;;6004005;23;20596;-69
2022/03/14 11:10:38;;;;;;;15.60;12.97;;;9.20;93.00;;;;;;6001859;23;20491;-69
2022/03/14 11:13:27;;;;;;;14.53;12.37;;;9.20;93.50;;;;;;6002613;23;21039;-69
2022/03/14 11:16:19;;;;;;;16.60;12.87;;;9.20;95.10;;;;;;6002479;23;20441;-69
2022/03/14 11:19:09;;;;;;;16.37;12.67;;;9.20;93.90;;;;;;5995337;23;20436;-70
2022/03/14 11:21:58;;;;;;;14.13;12.07;;;9.20;94.20;;;;;;6002903;23;20445;-69
2022/03/14 11:24:49;;;;;;;14.83;12.20;;;9.20;94.60;;;;;;6001300;23;20555;-70
2022/03/14 11:27:38;;;;;;;14.23;11.63;;;9.30;98.70;;;;;;6002173;23;20524;-70
2022/03/14 11:30:27;;;;;;;13.50;12.00;;;9.30;99.80;;;;;;6001554;23;20446;-69
2022/03/14 11:33:18;;;;;;;14.40;11.50;;;9.30;99.90;;;;;;6002388;23;20778;-69
2022/03/14 11:36:07;;;;;;;13.73;11.23;;;9.40;99.90;;;;;;6000579;23;20446;-70
2022/03/14 11:38:56;;;;;;;12.73;11.53;;;9.40;99.90;;;;;;5990875;23;20410;-69
2022/03/14 11:41:46;;;;;;;11.83;10.57;;;9.40;99.90;;;;;;5996603;23;20509;-69
2022/03/14 11:44:35;;;;;;;12.13;10.73;;;9.40;99.90;;;;;;5999781;23;20575;-69
2022/03/14 11:47:24;;;;;;;10.80;9.70;;;9.50;99.90;;;;;;6004863;23;20477;-70
2022/03/14 11:50:14;;;;;;;10.67;9.67;;;9.60;99.90;;;;;;6001819;23;20421;-70
2022/03/14 11:53:04;;;;;;;10.77;9.73;;;9.60;99.90;;;;;;6003674;23;20433;-69
2022/03/14 11:55:57;;;;;;;10.73;9.63;;;9.50;99.90;;;;;;6010492;23;20505;-70
2022/03/14 11:58:58;;;;;;;11.13;9.60;;;9.60;99.90;;;;;;6019754;23;20421;-70
2022/03/14 12:01:50;;;;;;;9.90;8.97;;;9.60;99.90;;;;;;6014347;23;20416;-70
2022/03/14 12:04:39;;;;;;;11.47;10.30;;;9.60;99.90;;;;;;6004981;23;20528;-69
2022/03/14 12:07:29;;;;;;;11.50;10.30;;;9.70;99.90;;;;;;6009927;23;20501;-73
2022/03/14 12:10:28;;;;;;;11.53;10.33;;;9.70;99.90;;;;;;6012592;23;20410;-69
2022/03/14 12:13:41;;;;;;;11.97;9.80;;;9.80;99.90;;;;;;6005828;23;20513;-70
2022/03/14 12:16:42;;;;;;;11.13;9.93;;;9.90;99.90;;;;;;6003259;23;20589;-70
2022/03/14 12:19:33;;;;;;;11.53;10.40;;;9.90;99.90;;;;;;5997911;23;20870;-70
2022/03/14 12:22:43;;;;;;;11.80;10.60;;;10.00;99.90;;;;;;6002490;23;20532;-70
2022/03/14 12:25:46;;;;;;;12.53;11.23;;;10.00;99.90;;;;;;6001667;23;20971;-70
2022/03/14 12:28:36;;;;;;;12.30;10.63;;;10.10;99.90;;;;;;6004688;23;20469;-69
2022/03/14 12:31:24;;;;;;;11.00;9.90;;;10.00;99.90;;;;;;6003616;23;20473;-69
2022/03/14 12:34:14;;;;;;;11.37;10.27;;;10.10;99.90;;;;;;6003067;23;20544;-69
2022/03/14 12:37:25;;;;;;;11.87;10.67;;;10.10;99.90;;;;;;6003255;23;20413;-69
2022/03/14 12:40:41;;;;;;;11.97;10.77;;;10.10;99.90;;;;;;5983933;23;20421;-69
2022/03/14 12:43:32;;;;;;;14.60;11.17;;;10.10;99.90;;;;;;6001133;23;20452;-69
2022/03/14 12:46:21;;;;;;;12.43;11.13;;;10.10;99.90;;;;;;6001664;23;20457;-69
2022/03/14 12:49:09;;;;;;;12.07;10.97;;;10.10;99.90;;;;;;6005099;23;20413;-69
2022/03/14 12:52:21;;;;;;;12.00;10.80;;;10.10;99.90;;;;;;5983124;23;20560;-69
2022/03/14 12:55:18;;;;;;;13.10;11.77;;;10.10;99.90;;;;;;6005554;23;20602;-70
2022/03/14 12:58:07;;;;;;;15.10;13.57;;;10.10;99.90;;;;;;6004245;23;20424;-69
2022/03/14 13:00:56;;;;;;;12.37;11.17;;;10.10;99.90;;;;;;5995043;23;20505;-69
2022/03/14 13:03:46;;;;;;;14.43;12.30;;;10.10;99.90;;;;;;6004904;23;20449;-69
2022/03/14 13:06:38;;;;;;;14.17;12.77;;;10.10;99.90;;;;;;6014428;23;20425;-69
2022/03/14 13:09:31;;;;;;;14.07;12.70;;;10.10;99.90;;;;;;6003498;23;20517;-70
2022/03/14 13:12:19;;;;;;;16.07;14.37;;;10.10;99.90;;;;;;6006076;23;20429;-70
2022/03/14 13:15:09;;;;;;;13.80;12.37;;;10.10;99.90;;;;;;6004712;23;20445;-70
2022/03/14 13:18:03;;;;;;;15.43;12.80;;;10.10;99.90;;;;;;6001399;23;20529;-70
2022/03/14 13:20:51;;;;;;;13.67;12.37;;;10.10;99.90;;;;;;6004395;23;20414;-70
2022/03/14 13:23:39;;;;;;;13.47;12.17;;;10.10;99.90;;;;;;6005565;23;20453;-70
2022/03/14 13:26:32;;;;;;;14.33;12.27;;;10.10;99.90;;;;;;6005267;23;20494;-70
2022/03/14 13:29:20;;;;;;;14.30;12.80;;;10.10;99.90;;;;;;6003464;23;20508;-70
2022/03/14 13:32:15;;;;;;;15.03;13.50;;;10.20;99.90;;;;;;6004103;23;20426;-70
2022/03/14 13:35:05;;;;;;;14.10;12.60;;;10.20;99.90;;;;;;6003341;23;20614;-70
2022/03/14 13:37:53;;;;;;;15.00;13.43;;;10.20;99.90;;;;;;5978634;23;20422;-70
2022/03/14 13:40:45;;;;;;;13.83;12.53;;;10.20;99.90;;;;;;5997281;23;20422;-70
2022/03/14 13:43:36;;;;;;;13.37;11.97;;;10.20;99.90;;;;;;6006518;23;20508;-69
2022/03/14 13:46:27;;;;;;;14.37;13.00;;;10.20;99.90;;;;;;6004133;23;20808;-70
2022/03/14 13:49:22;;;;;;;14.80;13.30;;;10.20;99.90;;;;;;6004486;23;20421;-69
2022/03/14 13:52:13;;;;;;;15.77;14.13;;;10.20;99.90;;;;;;6004752;23;20804;-69
2022/03/14 13:55:12;;;;;;;17.07;15.27;;;10.10;99.90;;;;;;6004117;23;20453;-69
2022/03/14 13:58:00;;;;;;;16.13;14.43;;;10.10;99.90;;;;;;6004790;23;20513;-69
2022/03/14 14:00:53;;;;;;;17.07;15.27;;;10.10;99.90;;;;;;6004008;23;20481;-69
2022/03/14 14:03:45;;;;;;;15.40;13.90;;;10.10;99.90;;;;;;5999769;23;20481;-69
2022/03/14 14:06:44;;;;;;;16.10;14.10;;;10.10;99.90;;;;;;6004555;23;20470;-69
2022/03/14 14:09:41;;;;;;;17.73;15.93;;;10.10;99.90;;;;;;6003167;23;20889;-69
2022/03/14 14:12:30;;;;;;;18.10;15.67;;;10.10;99.90;;;;;;6003051;23;20441;-69
2022/03/14 14:15:18;;;;;;;17.57;15.43;;;10.20;99.90;;;;;;6003518;23;20739;-70
2022/03/14 14:18:16;;;;;;;17.27;15.53;;;10.20;99.90;;;;;;6002838;23;20421;-69
2022/03/14 14:21:16;;;;;;;18.10;16.20;;;10.20;99.90;;;;;;5995785;23;20413;-69
2022/03/14 14:24:06;;;;;;;17.33;15.53;;;10.10;99.90;;;;;;6004026;23;20516;-70
2022/03/14 14:26:54;;;;;;;17.03;15.33;;;10.10;99.90;;;;;;6002847;23;20453;-69
2022/03/14 14:29:43;;;;;;;17.53;15.60;;;10.20;99.90;;;;;;6004139;23;20976;-69
2022/03/14 14:32:31;;;;;;;19.03;17.13;;;10.20;99.90;;;;;;6002888;23;20536;-69
2022/03/14 14:35:21;;;;;;;18.43;16.07;;;10.20;99.90;;;;;;6003703;23;20784;-69
2022/03/14 14:38:11;;;;;;;16.77;15.07;;;10.20;99.90;;;;;;6003974;23;20454;-69